Terminal Aerodrome Forecast
Issued by NWS Charleston, WV

Home | Current Version | Previous Version | Text Only | Print | Product List | Glossary On
Versions: 1 2 3 4 5 6 7 8 9 10 11 12 13 14 15 16 17 18 19 20
000
FTUS41 KRLX 301744
TAFHTS
TAF
KHTS 301744Z 3018/0118 25008KT P6SM SCT040
     FM302000 25010G15KT P6SM VCTS SCT040CB
     FM302100 27010G15KT P6SM TSRA BKN040CB
      TEMPO 3021/3022 2SM TSRA BKN030CB OVC050
     FM302300 33005KT P6SM VCTS BKN040CB
     FM010100 00000KT P6SM BKN040
     FM010500 00000KT 3SM BR BKN045
     FM010900 VRB03KT 4SM BR BKN020
     FM011300 VRB03KT P6SM SCT015=

USA.gov is the U.S. government's official web portal to all federal, state and local government web resources and services.